Terminal Aerodrome Forecast
Issued by NWS Wilmington, OH

Home | Current Version | Previous Version | Text Only | Print | Product List | Glossary On
Versions: 1 2 3 4 5 6 7 8 9 10 11 12 13 14 15 16 17 18 19 20 21
000
FTUS41 KILN 262200 AAA
TAFILN
TAF AMD
KILN 262238Z 2623/2718 32010KT P6SM OVC022
     FM270200 32006KT P6SM BKN035
     FM270500 33006KT P6SM SCT035
     FM271300 34010KT P6SM VCSH BKN025
     FM271600 34012G22KT P6SM VCSH BKN035=

USA.gov is the U.S. government's official web portal to all federal, state and local government web resources and services.